createdAt,value
2019-02-18T00:02:12.626Z,61.37
2019-02-18T00:04:40.923Z,62.70
2019-02-18T00:07:14.621Z,62.47
2019-02-18T00:09:39.605Z,59.30
2019-02-18T00:12:08.191Z,57.67
2019-02-18T00:14:36.893Z,65.43
2019-02-18T00:17:05.569Z,86.57
2019-02-18T00:19:34.151Z,88.97
2019-02-18T00:22:02.840Z,87.40
2019-02-18T00:24:31.532Z,86.70
2019-02-18T00:26:59.912Z,85.70
2019-02-18T00:29:28.218Z,84.67
2019-02-18T00:31:56.857Z,84.47
2019-02-18T00:34:25.154Z,82.57
2019-02-18T00:36:53.719Z,83.77
2019-02-18T00:39:22.123Z,81.37
2019-02-18T00:41:50.513Z,75.60
2019-02-18T00:44:18.910Z,78.77
2019-02-18T00:46:47.548Z,88.13
2019-02-18T00:49:16.145Z,96.60
2019-02-18T00:51:44.461Z,93.43
2019-02-18T00:54:13.093Z,99.23
2019-02-18T00:56:41.391Z,93.17
2019-02-18T00:59:09.950Z,95.33
2019-02-18T01:01:38.271Z,92.03
2019-02-18T01:04:06.586Z,93.60
2019-02-18T01:06:34.905Z,93.27
2019-02-18T01:09:04.775Z,88.27
2019-02-18T01:11:33.073Z,84.57
2019-02-18T01:14:01.779Z,93.13
2019-02-18T01:16:30.078Z,105.20
2019-02-18T01:18:58.373Z,103.70
2019-02-18T01:21:26.782Z,77.90
2019-02-18T01:23:55.315Z,59.60
2019-02-18T01:26:23.611Z,69.27
2019-02-18T01:28:52.443Z,66.07
2019-02-18T01:31:21.344Z,69.63
2019-02-18T01:33:49.691Z,73.97
2019-02-18T01:36:18.301Z,69.73
2019-02-18T01:39:06.162Z,76.27
2019-02-18T01:41:34.436Z,75.63
2019-02-18T01:44:02.742Z,74.10
2019-02-18T01:46:31.086Z,72.30
2019-02-18T01:48:59.747Z,73.03
2019-02-18T01:51:28.027Z,69.00
2019-02-18T01:53:56.349Z,67.33
2019-02-18T01:56:24.707Z,65.83
2019-02-18T01:58:52.983Z,65.13
2019-02-18T02:01:21.642Z,63.07
2019-02-18T02:03:49.948Z,61.53
2019-02-18T02:06:18.239Z,58.70
2019-02-18T02:08:46.522Z,58.20
2019-02-18T02:11:14.834Z,57.73
2019-02-18T02:13:43.122Z,57.27
2019-02-18T02:16:11.715Z,57.03
2019-02-18T02:18:40.293Z,55.77
2019-02-18T02:21:08.597Z,52.73
2019-02-18T02:23:39.297Z,53.73
2019-02-18T02:26:07.590Z,54.13
2019-02-18T02:28:35.879Z,53.47
2019-02-18T02:31:04.199Z,53.97
2019-02-18T02:33:32.478Z,53.10
2019-02-18T02:36:00.790Z,54.03
2019-02-18T02:38:29.066Z,51.07
2019-02-18T02:40:57.761Z,51.30
2019-02-18T02:43:26.055Z,52.03
2019-02-18T02:45:54.429Z,49.00
2019-02-18T02:48:22.998Z,49.27
2019-02-18T02:50:51.584Z,47.77
2019-02-18T02:53:21.522Z,47.33
2019-02-18T02:55:49.789Z,46.07
2019-02-18T02:58:18.452Z,44.67
2019-02-18T03:00:47.052Z,45.10
2019-02-18T03:03:15.336Z,44.07
2019-02-18T03:05:43.630Z,43.23
2019-02-18T03:08:20.026Z,43.07
2019-02-18T03:10:42.298Z,41.93
2019-02-18T03:13:10.588Z,41.63
2019-02-18T03:15:38.886Z,42.10
2019-02-18T03:18:07.170Z,40.53
2019-02-18T03:20:35.546Z,41.10
2019-02-18T03:23:03.854Z,40.23
2019-02-18T03:25:33.098Z,40.60
2019-02-18T03:28:25.487Z,40.03
2019-02-18T03:31:02.845Z,38.07
2019-02-18T03:33:46.450Z,37.30
2019-02-18T03:36:14.843Z,36.63
2019-02-18T03:38:43.187Z,38.07
2019-02-18T03:41:11.792Z,37.30
2019-02-18T03:43:40.099Z,36.43
2019-02-18T03:46:08.387Z,34.97
2019-02-18T03:48:36.673Z,35.43
2019-02-18T03:51:04.965Z,34.40
2019-02-18T03:53:33.275Z,35.93
2019-02-18T03:56:01.565Z,35.00
2019-02-18T03:58:29.943Z,32.20
2019-02-18T04:00:58.289Z,33.07
2019-02-18T04:03:26.890Z,34.03
2019-02-18T04:05:55.574Z,31.23
2019-02-18T04:08:23.889Z,31.57
2019-02-18T04:10:52.541Z,32.30
2019-02-18T04:13:20.838Z,31.30
2019-02-18T04:15:49.407Z,30.87
2019-02-18T04:18:18.086Z,31.20
2019-02-18T04:20:46.365Z,30.30
2019-02-18T04:23:14.655Z,29.57
2019-02-18T04:25:43.331Z,29.17
2019-02-18T04:28:11.629Z,28.57
2019-02-18T04:30:39.931Z,28.57
2019-02-18T04:33:08.220Z,28.63
2019-02-18T04:35:36.526Z,28.13
2019-02-18T04:38:04.811Z,29.10
2019-02-18T04:40:33.603Z,26.93
2019-02-18T04:43:02.183Z,27.73
2019-02-18T04:45:30.780Z,26.93
2019-02-18T04:47:59.150Z,26.00
2019-02-18T04:50:27.501Z,26.67
2019-02-18T04:52:55.810Z,25.40
2019-02-18T04:55:24.391Z,25.67
2019-02-18T04:57:52.679Z,26.13
2019-02-18T05:00:21.217Z,24.53
2019-02-18T05:02:49.573Z,24.70
2019-02-18T05:05:18.209Z,25.73
2019-02-18T05:07:46.578Z,24.70
2019-02-18T05:10:14.871Z,23.93
2019-02-18T05:12:43.159Z,24.17
2019-02-18T05:15:11.472Z,23.47
2019-02-18T05:17:39.775Z,22.83
2019-02-18T05:20:08.730Z,23.07
2019-02-18T05:22:37.025Z,21.80
2019-02-18T05:25:06.989Z,23.00
2019-02-18T05:27:35.372Z,21.77
2019-02-18T05:30:05.006Z,22.30
2019-02-18T05:32:33.674Z,21.60
2019-02-18T05:35:02.248Z,22.47
2019-02-18T05:37:30.827Z,21.43
2019-02-18T05:39:59.115Z,20.10
2019-02-18T05:42:27.683Z,20.83
2019-02-18T05:44:55.984Z,20.60
2019-02-18T05:47:24.266Z,20.47
2019-02-18T05:49:52.924Z,19.53
2019-02-18T05:52:21.512Z,20.13
2019-02-18T05:54:49.813Z,19.63
2019-02-18T05:57:18.371Z,19.77
2019-02-18T05:59:46.737Z,19.37
2019-02-18T06:02:15.331Z,21.37
2019-02-18T06:04:43.650Z,21.67
2019-02-18T06:07:12.296Z,25.33
2019-02-18T06:09:40.881Z,27.17
2019-02-18T06:12:09.162Z,29.43
2019-02-18T06:14:37.457Z,29.77
2019-02-18T06:17:05.738Z,29.83
2019-02-18T06:19:34.031Z,28.57
2019-02-18T06:22:02.318Z,27.40
2019-02-18T06:24:30.948Z,27.50
2019-02-18T06:26:59.231Z,30.27
2019-02-18T06:29:27.539Z,29.33
2019-02-18T06:31:55.840Z,28.30
2019-02-18T06:34:24.463Z,25.20
2019-02-18T06:36:53.049Z,26.27
2019-02-18T06:39:21.358Z,23.63
2019-02-18T06:41:49.906Z,22.87
2019-02-18T06:44:19.825Z,24.60
2019-02-18T06:46:52.626Z,27.77
2019-02-18T06:49:21.191Z,30.20
2019-02-18T06:51:49.773Z,26.30
2019-02-18T06:54:18.363Z,22.17
2019-02-18T06:56:54.061Z,23.57
2019-02-18T06:59:26.990Z,23.00
2019-02-18T07:01:59.979Z,22.83
2019-02-18T07:04:41.949Z,21.30
2019-02-18T07:07:28.686Z,22.40
2019-02-18T07:09:58.646Z,21.00
2019-02-18T07:12:34.878Z,20.80
2019-02-18T07:15:03.182Z,19.27
2019-02-18T07:17:31.731Z,18.97
2019-02-18T07:20:00.338Z,18.20
2019-02-18T07:22:28.825Z,18.03
2019-02-18T07:24:57.132Z,16.80
2019-02-18T07:27:25.444Z,17.50
2019-02-18T07:29:53.724Z,17.40
2019-02-18T07:32:22.302Z,16.33
2019-02-18T07:34:50.592Z,15.37
2019-02-18T07:37:18.899Z,15.30
2019-02-18T07:39:47.204Z,15.43
2019-02-18T07:42:15.487Z,14.57
2019-02-18T07:44:43.791Z,15.20
2019-02-18T07:47:12.379Z,13.63
2019-02-18T07:49:40.667Z,13.77
2019-02-18T07:52:08.979Z,13.63
2019-02-18T07:54:37.614Z,13.07
2019-02-18T07:57:06.202Z,13.37
2019-02-18T07:59:34.784Z,12.20
2019-02-18T08:02:03.084Z,12.63
2019-02-18T08:04:31.643Z,12.60
2019-02-18T08:06:59.952Z,12.47
2019-02-18T08:09:28.606Z,11.73
2019-02-18T08:11:56.893Z,12.53
2019-02-18T08:14:25.465Z,11.50
2019-02-18T08:16:53.751Z,12.50
2019-02-18T08:19:22.327Z,11.20
2019-02-18T08:21:50.625Z,10.57
2019-02-18T08:24:18.918Z,11.50
2019-02-18T08:26:47.575Z,10.90
2019-02-18T08:29:15.874Z,10.53
2019-02-18T08:31:44.434Z,10.63
2019-02-18T08:34:13.006Z,9.70
2019-02-18T08:36:41.597Z,10.00
2019-02-18T08:39:10.175Z,9.87
2019-02-18T08:41:38.532Z,9.43
2019-02-18T08:44:07.140Z,9.37
2019-02-18T08:46:35.723Z,9.67
2019-02-18T08:49:04.031Z,9.23
2019-02-18T08:51:32.303Z,8.70
2019-02-18T08:54:00.599Z,8.47
2019-02-18T08:56:29.236Z,8.67
2019-02-18T08:58:57.541Z,9.20
2019-02-18T09:01:25.817Z,8.97
2019-02-18T09:03:54.179Z,8.40
2019-02-18T09:06:22.754Z,9.10
2019-02-18T09:08:51.336Z,9.00
2019-02-18T09:11:19.924Z,8.70
2019-02-18T09:13:48.235Z,11.53
2019-02-18T09:16:16.509Z,12.33
2019-02-18T09:18:44.817Z,15.57
2019-02-18T09:21:13.444Z,30.27
2019-02-18T09:23:43.424Z,43.07
2019-02-18T09:26:13.344Z,43.87
2019-02-18T09:28:41.638Z,40.47
2019-02-18T09:31:09.945Z,30.20
2019-02-18T09:33:40.003Z,21.53
2019-02-18T09:36:08.627Z,20.13
2019-02-18T09:38:36.917Z,22.13
2019-02-18T09:41:05.494Z,23.13
2019-02-18T09:43:34.068Z,25.00
2019-02-18T09:46:02.726Z,24.80
2019-02-18T09:48:32.709Z,23.00
2019-02-18T09:51:01.034Z,18.23
2019-02-18T09:53:29.640Z,16.83
2019-02-18T09:55:58.223Z,19.33
2019-02-18T09:58:28.100Z,19.83
2019-02-18T10:00:56.724Z,19.87
2019-02-18T10:03:31.506Z,20.33
2019-02-18T10:05:58.198Z,19.67
2019-02-18T10:08:26.782Z,18.17
2019-02-18T10:10:56.153Z,18.47
2019-02-18T10:13:24.664Z,16.93
2019-02-18T10:15:53.245Z,17.13
2019-02-18T10:18:21.824Z,17.33
2019-02-18T10:20:50.410Z,18.33
2019-02-18T10:23:19.038Z,18.40
2019-02-18T10:25:47.682Z,25.57
2019-02-18T10:28:15.990Z,22.17
2019-02-18T10:30:44.367Z,21.53
2019-02-18T10:33:13.096Z,21.03
2019-02-18T10:35:41.648Z,21.17
2019-02-18T10:38:10.271Z,20.10
2019-02-18T10:40:38.910Z,20.93
2019-02-18T10:43:07.225Z,20.07
2019-02-18T10:45:35.530Z,19.40
2019-02-18T10:48:04.155Z,19.13
2019-02-18T10:50:32.471Z,18.43
2019-02-18T10:53:01.327Z,18.83
2019-02-18T10:55:29.819Z,16.73
2019-02-18T11:01:39.775Z,13.93
2019-02-18T11:04:08.363Z,14.73
2019-02-18T11:06:36.663Z,14.60
2019-02-18T11:09:09.011Z,15.33
2019-02-18T11:11:37.599Z,14.87
2019-02-18T11:14:05.935Z,13.60
2019-02-18T11:16:34.610Z,13.93
2019-02-18T11:19:02.924Z,15.40
2019-02-18T11:21:31.633Z,13.27
2019-02-18T11:23:59.985Z,14.23
2019-02-18T11:26:28.271Z,13.47
2019-02-18T11:28:56.570Z,13.17
2019-02-18T11:31:25.332Z,13.87
2019-02-18T11:33:53.922Z,13.10
2019-02-18T11:36:22.510Z,12.23
2019-02-18T11:38:50.817Z,11.97
2019-02-18T11:41:27.026Z,11.57
2019-02-18T11:43:49.213Z,12.53
2019-02-18T11:46:18.285Z,11.77
2019-02-18T11:48:46.599Z,12.37
2019-02-18T11:51:14.881Z,11.83
2019-02-18T11:53:43.634Z,11.63
2019-02-18T11:56:11.916Z,11.07
2019-02-18T11:58:40.220Z,10.30
2019-02-18T12:01:09.184Z,13.57
2019-02-18T12:03:37.567Z,15.00
2019-02-18T12:06:05.858Z,17.87
2019-02-18T12:08:34.210Z,22.83
2019-02-18T12:11:02.537Z,32.83
2019-02-18T12:13:31.274Z,34.17
2019-02-18T12:16:00.054Z,30.87
2019-02-18T12:18:31.118Z,29.83
2019-02-18T12:20:59.169Z,29.23
2019-02-18T12:23:29.138Z,29.30
2019-02-18T12:25:57.443Z,29.13
2019-02-18T12:28:25.763Z,29.50
2019-02-18T12:30:54.428Z,33.67
2019-02-18T12:33:23.038Z,36.60
2019-02-18T12:35:51.690Z,33.30
2019-02-18T12:38:20.276Z,35.10
2019-02-18T12:40:48.578Z,33.23
2019-02-18T12:43:17.139Z,32.57
2019-02-18T12:45:45.464Z,31.30
2019-02-18T12:48:14.094Z,31.47
2019-02-18T12:50:42.383Z,36.13
2019-02-18T12:53:11.015Z,34.07
2019-02-18T12:55:39.647Z,33.97
2019-02-18T12:58:08.035Z,34.30
2019-02-18T13:00:36.400Z,34.43
2019-02-18T13:03:05.394Z,33.77
2019-02-18T13:05:33.773Z,32.63
2019-02-18T13:08:02.868Z,32.77
2019-02-18T13:10:34.882Z,33.53
2019-02-18T13:13:01.983Z,37.90
2019-02-18T13:15:30.675Z,41.63
2019-02-18T13:17:59.465Z,46.23
2019-02-18T13:20:28.147Z,46.30
2019-02-18T13:22:56.513Z,46.23
2019-02-18T13:25:25.211Z,43.30
2019-02-18T13:27:53.897Z,42.97
2019-02-18T13:30:22.255Z,43.70
2019-02-18T13:32:50.625Z,43.40
2019-02-18T13:35:18.999Z,40.90
2019-02-18T13:37:47.303Z,43.27
2019-02-18T13:40:16.330Z,43.80
2019-02-18T13:42:45.005Z,40.00
2019-02-18T13:45:15.429Z,39.70
2019-02-18T13:47:43.735Z,40.00
2019-02-18T13:50:14.962Z,39.17
2019-02-18T13:52:43.544Z,38.67
2019-02-18T13:55:13.030Z,40.50
2019-02-18T13:57:41.816Z,39.83
2019-02-18T14:00:19.668Z,38.63
2019-02-18T14:02:48.915Z,34.47
2019-02-18T14:05:23.743Z,31.37
2019-02-18T14:07:55.402Z,30.47
2019-02-18T14:10:25.596Z,30.97
2019-02-18T14:12:53.942Z,32.30
2019-02-18T14:15:23.955Z,32.50
2019-02-18T14:17:52.319Z,29.77
2019-02-18T14:20:20.646Z,29.30
2019-02-18T14:22:49.363Z,29.17
2019-02-18T14:25:22.859Z,28.63
2019-02-18T14:27:51.552Z,28.03
2019-02-18T14:30:19.857Z,28.70
2019-02-18T14:32:48.506Z,28.77
2019-02-18T14:35:18.714Z,29.97
2019-02-18T14:37:50.899Z,26.33
2019-02-18T14:40:21.430Z,25.80
2019-02-18T14:42:50.129Z,26.33
2019-02-18T14:45:18.833Z,26.00
2019-02-18T14:47:47.490Z,26.10
2019-02-18T14:50:18.831Z,25.63
2019-02-18T14:52:47.584Z,26.63
2019-02-18T14:55:15.952Z,26.80
2019-02-18T14:57:44.687Z,26.77
2019-02-18T15:00:19.590Z,27.10
2019-02-18T15:02:48.125Z,26.73
2019-02-18T15:05:16.802Z,25.43
2019-02-18T15:07:45.572Z,25.80
2019-02-18T15:10:14.994Z,25.07
2019-02-18T15:12:43.363Z,25.50
2019-02-18T15:15:11.958Z,24.13
2019-02-18T15:17:40.631Z,25.03
2019-02-18T15:20:11.355Z,24.73
2019-02-18T15:22:39.454Z,22.87
2019-02-18T15:25:09.336Z,23.57
2019-02-18T15:27:38.049Z,27.77
2019-02-18T15:30:12.520Z,27.90
2019-02-18T15:32:40.802Z,28.73
2019-02-18T15:35:09.420Z,31.47
2019-02-18T15:37:37.720Z,30.30
2019-02-18T15:40:09.487Z,32.07
2019-02-18T15:42:42.320Z,32.83
2019-02-18T15:45:08.691Z,31.30
2019-02-18T15:47:37.077Z,32.20
2019-02-18T15:50:10.884Z,30.30
2019-02-18T15:52:39.574Z,31.17
2019-02-18T15:55:08.704Z,30.20
2019-02-18T15:57:37.125Z,29.63
2019-02-18T16:00:08.990Z,29.37
2019-02-18T16:02:37.565Z,28.70
2019-02-18T16:05:06.434Z,28.60
2019-02-18T16:07:35.165Z,27.13
2019-02-18T16:10:04.703Z,28.13
2019-02-18T16:12:33.343Z,28.10
2019-02-18T16:15:01.882Z,31.40
2019-02-18T16:17:30.250Z,33.83
2019-02-18T16:19:58.650Z,35.10
2019-02-18T16:22:27.023Z,35.13
2019-02-18T16:24:55.308Z,35.17
2019-02-18T16:27:23.863Z,31.20
2019-02-18T16:29:52.223Z,28.37
2019-02-18T16:32:20.504Z,25.70
2019-02-18T16:34:48.882Z,24.57
2019-02-18T16:37:17.583Z,23.70
2019-02-18T16:39:46.227Z,26.73
2019-02-18T16:42:14.919Z,27.83
2019-02-18T16:44:43.290Z,27.73
2019-02-18T16:47:11.702Z,27.73
2019-02-18T16:49:40.357Z,36.67
2019-02-18T16:52:09.448Z,35.90
2019-02-18T16:54:37.829Z,46.27
2019-02-18T16:57:06.127Z,48.43
2019-02-18T16:59:34.782Z,45.37
2019-02-18T17:02:03.112Z,47.13
2019-02-18T17:04:31.474Z,46.60
2019-02-18T17:07:00.443Z,48.53
2019-02-18T17:09:29.119Z,49.07
2019-02-18T17:11:57.670Z,56.23
2019-02-18T17:14:26.402Z,79.73
2019-02-18T17:16:54.992Z,94.73
2019-02-18T17:19:23.676Z,73.70
2019-02-18T17:21:52.044Z,77.37
2019-02-18T17:24:21.134Z,69.90
2019-02-18T17:26:49.704Z,74.27
2019-02-18T17:29:18.406Z,75.00
2019-02-18T17:31:47.097Z,71.17
2019-02-18T17:34:15.478Z,72.10
2019-02-18T17:36:44.055Z,68.40
2019-02-18T17:39:13.047Z,72.63
2019-02-18T17:41:41.411Z,70.10
2019-02-18T17:44:09.697Z,70.57
2019-02-18T17:46:38.082Z,68.37
2019-02-18T17:49:06.777Z,67.90
2019-02-18T17:51:35.558Z,67.80
2019-02-18T17:54:04.191Z,66.33
2019-02-18T17:56:33.046Z,67.37
2019-02-18T17:59:01.335Z,78.80
2019-02-18T18:01:29.739Z,63.93
2019-02-18T18:03:58.434Z,72.70
2019-02-18T18:06:27.000Z,83.53
2019-02-18T18:08:58.415Z,88.40
2019-02-18T18:11:27.397Z,86.33
2019-02-18T18:13:56.086Z,89.90
2019-02-18T18:16:24.775Z,87.57
2019-02-18T18:18:53.167Z,86.60
2019-02-18T18:21:21.495Z,86.03
2019-02-18T18:23:50.232Z,83.47
2019-02-18T18:26:18.626Z,96.73
2019-02-18T18:28:47.299Z,101.73
2019-02-18T18:31:15.879Z,112.90
2019-02-18T18:33:44.565Z,122.13
2019-02-18T18:36:13.324Z,125.70
2019-02-18T18:38:41.731Z,123.80
2019-02-18T18:41:10.422Z,126.07
2019-02-18T18:43:39.304Z,124.30
2019-02-18T18:46:07.633Z,121.73
2019-02-18T18:48:36.263Z,126.63
2019-02-18T18:51:04.580Z,127.07
2019-02-18T18:53:32.876Z,123.60
2019-02-18T18:56:01.192Z,122.00
2019-02-18T18:58:30.292Z,124.20
2019-02-18T19:00:58.886Z,115.57
2019-02-18T19:03:27.564Z,123.07
2019-02-18T19:05:56.160Z,107.97
2019-02-18T19:08:24.947Z,109.67
2019-02-18T19:10:53.298Z,122.10
2019-02-18T19:13:22.336Z,113.07
2019-02-18T19:15:51.127Z,107.47
2019-02-18T19:18:19.785Z,100.43
2019-02-18T19:20:48.416Z,102.20
2019-02-18T19:23:17.475Z,100.90
2019-02-18T19:25:45.899Z,98.43
2019-02-18T19:28:15.063Z,99.17
2019-02-18T19:30:43.463Z,97.50
2019-02-18T19:36:40.114Z,94.23
2019-02-18T19:39:08.623Z,89.20
2019-02-18T19:41:37.403Z,88.67
2019-02-18T19:44:06.211Z,87.53
2019-02-18T19:46:34.780Z,86.93
2019-02-18T19:49:03.583Z,87.23
2019-02-18T19:51:32.060Z,84.90
2019-02-18T19:54:02.374Z,91.77
2019-02-18T19:56:30.831Z,96.90
2019-02-18T19:58:59.218Z,95.10
2019-02-18T20:01:27.754Z,95.90
2019-02-18T20:03:56.411Z,98.90
2019-02-18T20:09:56.995Z,99.07
2019-02-18T20:12:25.370Z,101.50
2019-02-18T20:14:53.931Z,108.73
2019-02-18T20:17:22.546Z,110.63
2019-02-18T20:19:51.243Z,112.27
2019-02-18T20:22:19.920Z,108.97
2019-02-18T20:24:48.539Z,104.40
2019-02-18T20:27:17.231Z,94.87
2019-02-18T20:29:45.617Z,82.13
2019-02-18T20:32:14.363Z,75.43
2019-02-18T20:34:42.949Z,71.03
2019-02-18T20:37:11.622Z,70.37
2019-02-18T20:39:40.044Z,65.43
2019-02-18T20:42:08.440Z,66.97
2019-02-18T20:44:36.805Z,69.40
2019-02-18T20:47:05.116Z,70.37
2019-02-18T20:49:33.940Z,72.27
2019-02-18T20:52:02.724Z,70.43
2019-02-18T20:54:31.048Z,69.30
2019-02-18T20:56:59.482Z,66.27
2019-02-18T20:59:28.053Z,63.53
2019-02-18T21:01:56.359Z,60.30
2019-02-18T21:04:25.426Z,79.23
2019-02-18T21:06:53.823Z,110.03
2019-02-18T21:09:22.115Z,95.93
2019-02-18T21:11:50.774Z,99.67
2019-02-18T21:14:19.054Z,88.63
2019-02-18T21:16:47.636Z,86.07
2019-02-18T21:19:15.972Z,91.87
2019-02-18T21:21:44.327Z,93.80
2019-02-18T21:24:12.705Z,92.73
2019-02-18T21:26:41.011Z,93.63
2019-02-18T21:29:09.731Z,92.30
2019-02-18T21:31:38.025Z,92.10
2019-02-18T21:34:06.315Z,87.73
2019-02-18T21:36:35.120Z,88.30
2019-02-18T21:39:05.699Z,89.00
2019-02-18T21:41:34.300Z,89.10
2019-02-18T21:44:02.875Z,84.17
2019-02-18T21:46:31.299Z,84.77
2019-02-18T21:48:59.619Z,84.83
2019-02-18T21:51:28.244Z,85.87
2019-02-18T21:53:56.801Z,81.40
2019-02-18T21:56:26.086Z,132.73
2019-02-18T21:58:54.395Z,97.87
2019-02-18T22:01:22.768Z,82.97
2019-02-18T22:03:51.066Z,89.83
2019-02-18T22:06:19.816Z,108.93
2019-02-18T22:08:48.135Z,104.17
2019-02-18T22:11:16.517Z,98.63
2019-02-18T22:13:44.845Z,99.13
2019-02-18T22:16:13.258Z,92.23
2019-02-18T22:18:41.550Z,93.73
2019-02-18T22:21:10.299Z,91.97
2019-02-18T22:23:38.983Z,90.67
2019-02-18T22:26:07.568Z,91.00
2019-02-18T22:28:36.156Z,90.53
2019-02-18T22:31:04.743Z,86.43
2019-02-18T22:33:33.065Z,88.40
2019-02-18T22:36:01.393Z,87.63
2019-02-18T22:38:30.087Z,86.00
2019-02-18T22:40:59.064Z,87.00
2019-02-18T22:43:27.442Z,85.63
2019-02-18T22:45:55.750Z,82.97
2019-02-18T22:48:24.302Z,83.13
2019-02-18T22:50:52.605Z,84.73
2019-02-18T22:53:20.998Z,82.20
2019-02-18T22:55:49.567Z,88.00
2019-02-18T22:58:18.581Z,82.60
2019-02-18T23:00:54.693Z,89.70
2019-02-18T23:03:23.508Z,85.53
2019-02-18T23:05:51.795Z,91.83
2019-02-18T23:08:20.448Z,111.10
2019-02-18T23:10:48.742Z,117.97
2019-02-18T23:13:17.538Z,120.40
2019-02-18T23:15:46.094Z,100.67
2019-02-18T23:18:14.814Z,102.77
2019-02-18T23:20:43.477Z,109.77
2019-02-18T23:23:12.170Z,109.63
2019-02-18T23:25:40.473Z,96.80
2019-02-18T23:28:09.115Z,63.10
2019-02-18T23:30:38.107Z,67.33
2019-02-18T23:33:06.402Z,78.53
2019-02-18T23:35:34.992Z,77.10
2019-02-18T23:38:03.550Z,88.47
2019-02-18T23:40:32.133Z,86.77
2019-02-18T23:43:00.678Z,88.27
2019-02-18T23:45:29.007Z,86.97
2019-02-18T23:47:57.578Z,87.67
2019-02-18T23:50:25.883Z,86.67
2019-02-18T23:52:54.555Z,79.90
2019-02-18T23:55:22.844Z,82.23
2019-02-18T23:57:51.146Z,79.90
